sensor_id;sensor_type;location;lat;lon;timestamp;P1;durP1;ratioP1;P2;durP2;ratioP2
5263;SDS011;2654;47.958;13.614;2022-07-03T00:03:59;5.27;;;4.37;;
5263;SDS011;2654;47.958;13.614;2022-07-03T00:16:58;4.80;;;3.77;;
5263;SDS011;2654;47.958;13.614;2022-07-03T00:19:26;4.33;;;3.70;;
5263;SDS011;2654;47.958;13.614;2022-07-03T00:21:55;4.57;;;4.17;;
5263;SDS011;2654;47.958;13.614;2022-07-03T00:24:32;4.47;;;4.07;;
5263;SDS011;2654;47.958;13.614;2022-07-03T00:27:06;8.30;;;4.77;;
5263;SDS011;2654;47.958;13.614;2022-07-03T00:29:46;4.67;;;4.27;;
5263;SDS011;2654;47.958;13.614;2022-07-03T00:32:37;5.20;;;3.90;;
5263;SDS011;2654;47.958;13.614;2022-07-03T00:35:07;11.83;;;4.03;;
5263;SDS011;2654;47.958;13.614;2022-07-03T00:37:43;5.93;;;4.03;;
5263;SDS011;2654;47.958;13.614;2022-07-03T00:40:13;5.37;;;3.60;;
5263;SDS011;2654;47.958;13.614;2022-07-03T00:45:36;6.80;;;4.47;;
5263;SDS011;2654;47.958;13.614;2022-07-03T00:48:16;7.33;;;4.20;;
5263;SDS011;2654;47.958;13.614;2022-07-03T00:50:46;6.73;;;3.13;;
5263;SDS011;2654;47.958;13.614;2022-07-03T00:53:26;5.27;;;3.10;;
5263;SDS011;2654;47.958;13.614;2022-07-03T00:55:55;7.80;;;3.90;;
5263;SDS011;2654;47.958;13.614;2022-07-03T01:01:02;5.43;;;4.27;;
5263;SDS011;2654;47.958;13.614;2022-07-03T01:03:31;8.87;;;4.10;;
5263;SDS011;2654;47.958;13.614;2022-07-03T01:06:02;7.73;;;4.50;;
5263;SDS011;2654;47.958;13.614;2022-07-03T01:08:41;5.30;;;4.43;;
5263;SDS011;2654;47.958;13.614;2022-07-03T01:14:04;8.60;;;5.30;;
5263;SDS011;2654;47.958;13.614;2022-07-03T01:16:47;5.10;;;4.10;;
5263;SDS011;2654;47.958;13.614;2022-07-03T01:19:29;6.23;;;3.80;;
5263;SDS011;2654;47.958;13.614;2022-07-03T01:22:08;7.07;;;4.47;;
5263;SDS011;2654;47.958;13.614;2022-07-03T01:25:01;5.23;;;4.30;;
5263;SDS011;2654;47.958;13.614;2022-07-03T01:33:16;7.10;;;4.47;;
5263;SDS011;2654;47.958;13.614;2022-07-03T01:35:47;5.60;;;4.50;;
5263;SDS011;2654;47.958;13.614;2022-07-03T01:41:21;17.33;;;4.50;;
5263;SDS011;2654;47.958;13.614;2022-07-03T01:43:55;8.00;;;3.50;;
5263;SDS011;2654;47.958;13.614;2022-07-03T01:46:26;6.50;;;4.30;;
5263;SDS011;2654;47.958;13.614;2022-07-03T01:48:55;11.50;;;4.67;;
5263;SDS011;2654;47.958;13.614;2022-07-03T01:51:39;7.43;;;4.10;;
5263;SDS011;2654;47.958;13.614;2022-07-03T01:54:10;8.20;;;3.67;;
5263;SDS011;2654;47.958;13.614;2022-07-03T01:56:46;3.87;;;3.30;;
5263;SDS011;2654;47.958;13.614;2022-07-03T01:59:32;9.33;;;3.77;;
5263;SDS011;2654;47.958;13.614;2022-07-03T02:02:02;9.13;;;4.10;;
5263;SDS011;2654;47.958;13.614;2022-07-03T02:04:54;6.93;;;3.57;;
5263;SDS011;2654;47.958;13.614;2022-07-03T02:07:43;4.63;;;3.60;;
5263;SDS011;2654;47.958;13.614;2022-07-03T02:10:18;5.27;;;4.03;;
5263;SDS011;2654;47.958;13.614;2022-07-03T02:12:52;4.70;;;3.67;;
5263;SDS011;2654;47.958;13.614;2022-07-03T02:15:34;10.40;;;3.90;;
5263;SDS011;2654;47.958;13.614;2022-07-03T02:18:04;4.43;;;4.10;;
5263;SDS011;2654;47.958;13.614;2022-07-03T02:20:53;6.47;;;4.50;;
5263;SDS011;2654;47.958;13.614;2022-07-03T02:23:39;9.00;;;4.60;;
5263;SDS011;2654;47.958;13.614;2022-07-03T02:26:29;5.83;;;4.37;;
5263;SDS011;2654;47.958;13.614;2022-07-03T02:29:01;5.60;;;4.27;;
5263;SDS011;2654;47.958;13.614;2022-07-03T02:36:39;7.23;;;4.50;;
5263;SDS011;2654;47.958;13.614;2022-07-03T02:39:14;8.93;;;5.67;;
5263;SDS011;2654;47.958;13.614;2022-07-03T02:41:52;16.23;;;4.90;;
5263;SDS011;2654;47.958;13.614;2022-07-03T02:47:10;14.00;;;5.60;;
5263;SDS011;2654;47.958;13.614;2022-07-03T02:49:50;8.43;;;4.60;;
5263;SDS011;2654;47.958;13.614;2022-07-03T02:52:30;5.47;;;4.20;;
5263;SDS011;2654;47.958;13.614;2022-07-03T02:55:22;10.67;;;5.37;;
5263;SDS011;2654;47.958;13.614;2022-07-03T03:01:07;6.30;;;5.10;;
5263;SDS011;2654;47.958;13.614;2022-07-03T03:03:38;6.03;;;5.10;;
5263;SDS011;2654;47.958;13.614;2022-07-03T03:08:56;5.87;;;5.03;;
5263;SDS011;2654;47.958;13.614;2022-07-03T03:11:32;9.70;;;4.63;;
5263;SDS011;2654;47.958;13.614;2022-07-03T03:14:10;11.47;;;5.70;;
5263;SDS011;2654;47.958;13.614;2022-07-03T03:16:41;6.30;;;3.93;;
5263;SDS011;2654;47.958;13.614;2022-07-03T03:19:14;5.60;;;4.40;;
5263;SDS011;2654;47.958;13.614;2022-07-03T03:24:48;10.40;;;4.70;;
5263;SDS011;2654;47.958;13.614;2022-07-03T03:27:28;9.20;;;4.93;;
5263;SDS011;2654;47.958;13.614;2022-07-03T03:32:26;10.60;;;4.80;;
5263;SDS011;2654;47.958;13.614;2022-07-03T03:34:57;7.43;;;5.80;;
5263;SDS011;2654;47.958;13.614;2022-07-03T03:37:24;7.33;;;4.67;;
5263;SDS011;2654;47.958;13.614;2022-07-03T03:42:44;7.07;;;5.37;;
5263;SDS011;2654;47.958;13.614;2022-07-03T03:53:13;8.93;;;6.10;;
5263;SDS011;2654;47.958;13.614;2022-07-03T03:58:25;9.70;;;5.10;;
5263;SDS011;2654;47.958;13.614;2022-07-03T04:00:54;5.60;;;4.90;;
5263;SDS011;2654;47.958;13.614;2022-07-03T04:05:58;12.40;;;5.10;;
5263;SDS011;2654;47.958;13.614;2022-07-03T04:08:32;6.70;;;6.00;;
5263;SDS011;2654;47.958;13.614;2022-07-03T04:14:00;6.60;;;5.87;;
5263;SDS011;2654;47.958;13.614;2022-07-03T04:16:28;8.67;;;6.30;;
5263;SDS011;2654;47.958;13.614;2022-07-03T04:19:05;7.33;;;6.60;;
5263;SDS011;2654;47.958;13.614;2022-07-03T04:21:42;6.10;;;5.50;;
5263;SDS011;2654;47.958;13.614;2022-07-03T04:24:25;8.90;;;6.83;;
5263;SDS011;2654;47.958;13.614;2022-07-03T04:26:52;8.30;;;6.20;;
5263;SDS011;2654;47.958;13.614;2022-07-03T04:29:21;6.80;;;6.10;;
5263;SDS011;2654;47.958;13.614;2022-07-03T04:31:49;6.67;;;6.07;;
5263;SDS011;2654;47.958;13.614;2022-07-03T04:34:17;7.70;;;6.00;;
5263;SDS011;2654;47.958;13.614;2022-07-03T04:36:47;10.50;;;7.00;;
5263;SDS011;2654;47.958;13.614;2022-07-03T04:41:54;8.43;;;6.27;;
5263;SDS011;2654;47.958;13.614;2022-07-03T04:44:33;7.30;;;6.10;;
5263;SDS011;2654;47.958;13.614;2022-07-03T04:47:17;6.20;;;5.60;;
5263;SDS011;2654;47.958;13.614;2022-07-03T04:49:46;6.90;;;6.20;;
5263;SDS011;2654;47.958;13.614;2022-07-03T04:52:16;10.90;;;6.37;;
5263;SDS011;2654;47.958;13.614;2022-07-03T04:54:44;7.10;;;6.40;;
5263;SDS011;2654;47.958;13.614;2022-07-03T04:59:49;9.97;;;6.20;;
5263;SDS011;2654;47.958;13.614;2022-07-03T05:02:17;7.17;;;6.20;;
5263;SDS011;2654;47.958;13.614;2022-07-03T05:04:44;8.00;;;6.90;;
5263;SDS011;2654;47.958;13.614;2022-07-03T05:07:14;9.07;;;8.13;;
5263;SDS011;2654;47.958;13.614;2022-07-03T05:12:43;9.03;;;5.90;;
5263;SDS011;2654;47.958;13.614;2022-07-03T05:15:17;15.20;;;7.03;;
5263;SDS011;2654;47.958;13.614;2022-07-03T05:20:23;8.00;;;7.00;;
5263;SDS011;2654;47.958;13.614;2022-07-03T05:22:50;8.80;;;6.47;;
5263;SDS011;2654;47.958;13.614;2022-07-03T05:25:19;9.43;;;6.70;;
5263;SDS011;2654;47.958;13.614;2022-07-03T05:27:47;8.50;;;6.50;;
5263;SDS011;2654;47.958;13.614;2022-07-03T05:30:25;7.43;;;6.60;;
5263;SDS011;2654;47.958;13.614;2022-07-03T05:32:59;7.33;;;6.63;;
5263;SDS011;2654;47.958;13.614;2022-07-03T05:35:43;7.10;;;6.40;;
5263;SDS011;2654;47.958;13.614;2022-07-03T05:38:16;12.20;;;7.77;;
5263;SDS011;2654;47.958;13.614;2022-07-03T05:41:07;7.80;;;6.90;;
5263;SDS011;2654;47.958;13.614;2022-07-03T05:43:41;8.50;;;7.10;;
5263;SDS011;2654;47.958;13.614;2022-07-03T05:46:08;9.27;;;8.00;;
5263;SDS011;2654;47.958;13.614;2022-07-03T05:51:15;8.40;;;7.10;;
5263;SDS011;2654;47.958;13.614;2022-07-03T05:53:44;7.40;;;6.50;;
5263;SDS011;2654;47.958;13.614;2022-07-03T05:56:15;7.20;;;6.50;;
5263;SDS011;2654;47.958;13.614;2022-07-03T06:01:26;6.93;;;6.23;;
5263;SDS011;2654;47.958;13.614;2022-07-03T06:03:56;6.70;;;5.50;;
5263;SDS011;2654;47.958;13.614;2022-07-03T06:06:42;14.70;;;6.70;;
5263;SDS011;2654;47.958;13.614;2022-07-03T06:09:17;12.83;;;6.30;;
5263;SDS011;2654;47.958;13.614;2022-07-03T06:11:48;7.63;;;5.53;;
5263;SDS011;2654;47.958;13.614;2022-07-03T06:14:16;6.80;;;6.00;;
5263;SDS011;2654;47.958;13.614;2022-07-03T06:16:50;6.20;;;5.03;;
5263;SDS011;2654;47.958;13.614;2022-07-03T06:27:10;5.20;;;4.60;;
5263;SDS011;2654;47.958;13.614;2022-07-03T06:29:42;4.57;;;3.90;;
5263;SDS011;2654;47.958;13.614;2022-07-03T06:32:12;5.40;;;4.90;;
5263;SDS011;2654;47.958;13.614;2022-07-03T06:34:41;6.30;;;4.10;;
5263;SDS011;2654;47.958;13.614;2022-07-03T06:37:13;4.33;;;4.00;;
5263;SDS011;2654;47.958;13.614;2022-07-03T06:39:57;3.70;;;3.40;;
5263;SDS011;2654;47.958;13.614;2022-07-03T06:42:33;4.50;;;3.73;;
5263;SDS011;2654;47.958;13.614;2022-07-03T06:47:39;3.33;;;3.13;;
5263;SDS011;2654;47.958;13.614;2022-07-03T06:52:38;4.10;;;3.80;;
5263;SDS011;2654;47.958;13.614;2022-07-03T06:55:06;4.50;;;4.13;;
5263;SDS011;2654;47.958;13.614;2022-07-03T07:02:40;9.83;;;4.60;;
5263;SDS011;2654;47.958;13.614;2022-07-03T07:05:07;3.70;;;3.40;;
5263;SDS011;2654;47.958;13.614;2022-07-03T07:07:36;4.57;;;3.50;;
5263;SDS011;2654;47.958;13.614;2022-07-03T07:10:04;3.37;;;3.13;;
5263;SDS011;2654;47.958;13.614;2022-07-03T07:12:40;5.50;;;3.60;;
5263;SDS011;2654;47.958;13.614;2022-07-03T07:15:08;4.20;;;3.80;;
5263;SDS011;2654;47.958;13.614;2022-07-03T07:20:21;4.10;;;3.70;;
5263;SDS011;2654;47.958;13.614;2022-07-03T07:22:48;6.53;;;2.70;;
5263;SDS011;2654;47.958;13.614;2022-07-03T07:25:18;4.20;;;3.80;;
5263;SDS011;2654;47.958;13.614;2022-07-03T07:27:53;3.77;;;3.43;;
5263;SDS011;2654;47.958;13.614;2022-07-03T07:30:26;4.27;;;3.80;;
5263;SDS011;2654;47.958;13.614;2022-07-03T07:35:37;3.50;;;3.20;;
5263;SDS011;2654;47.958;13.614;2022-07-03T07:38:04;4.00;;;3.53;;
5263;SDS011;2654;47.958;13.614;2022-07-03T07:40:32;3.67;;;3.37;;
5263;SDS011;2654;47.958;13.614;2022-07-03T07:43:18;3.60;;;3.30;;
5263;SDS011;2654;47.958;13.614;2022-07-03T07:45:46;5.93;;;3.10;;
5263;SDS011;2654;47.958;13.614;2022-07-03T07:48:15;4.30;;;3.30;;
5263;SDS011;2654;47.958;13.614;2022-07-03T07:50:43;3.13;;;2.93;;
5263;SDS011;2654;47.958;13.614;2022-07-03T07:53:12;4.23;;;3.93;;
5263;SDS011;2654;47.958;13.614;2022-07-03T07:55:40;3.90;;;3.10;;
5263;SDS011;2654;47.958;13.614;2022-07-03T07:58:10;3.80;;;3.50;;
5263;SDS011;2654;47.958;13.614;2022-07-03T08:06:17;5.47;;;4.10;;
5263;SDS011;2654;47.958;13.614;2022-07-03T08:08:46;5.40;;;2.77;;
5263;SDS011;2654;47.958;13.614;2022-07-03T08:11:15;11.33;;;3.90;;
5263;SDS011;2654;47.958;13.614;2022-07-03T08:13:45;5.83;;;3.03;;
5263;SDS011;2654;47.958;13.614;2022-07-03T08:16:14;2.70;;;2.50;;
5263;SDS011;2654;47.958;13.614;2022-07-03T08:18:43;3.00;;;2.80;;
5263;SDS011;2654;47.958;13.614;2022-07-03T08:21:17;5.37;;;3.50;;
5263;SDS011;2654;47.958;13.614;2022-07-03T08:23:45;9.50;;;2.90;;
5263;SDS011;2654;47.958;13.614;2022-07-03T08:26:12;3.73;;;3.43;;
5263;SDS011;2654;47.958;13.614;2022-07-03T08:28:41;3.00;;;2.80;;
5263;SDS011;2654;47.958;13.614;2022-07-03T08:31:10;3.27;;;3.00;;
5263;SDS011;2654;47.958;13.614;2022-07-03T08:33:41;3.07;;;2.87;;
5263;SDS011;2654;47.958;13.614;2022-07-03T08:36:09;4.93;;;3.20;;
5263;SDS011;2654;47.958;13.614;2022-07-03T08:38:49;7.23;;;3.03;;
5263;SDS011;2654;47.958;13.614;2022-07-03T08:41:18;3.33;;;3.03;;
5263;SDS011;2654;47.958;13.614;2022-07-03T08:43:48;2.77;;;2.57;;
5263;SDS011;2654;47.958;13.614;2022-07-03T08:46:34;3.27;;;3.07;;
5263;SDS011;2654;47.958;13.614;2022-07-03T08:49:06;5.63;;;3.20;;
5263;SDS011;2654;47.958;13.614;2022-07-03T08:54:12;3.83;;;3.53;;
5263;SDS011;2654;47.958;13.614;2022-07-03T08:59:11;3.87;;;3.57;;
5263;SDS011;2654;47.958;13.614;2022-07-03T09:01:42;4.70;;;3.20;;
5263;SDS011;2654;47.958;13.614;2022-07-03T09:04:14;3.50;;;3.30;;
5263;SDS011;2654;47.958;13.614;2022-07-03T09:06:43;2.77;;;2.57;;
5263;SDS011;2654;47.958;13.614;2022-07-03T09:09:19;3.47;;;3.03;;
5263;SDS011;2654;47.958;13.614;2022-07-03T09:11:46;2.93;;;2.73;;
5263;SDS011;2654;47.958;13.614;2022-07-03T09:14:16;4.63;;;3.00;;
5263;SDS011;2654;47.958;13.614;2022-07-03T09:16:43;3.17;;;2.97;;
5263;SDS011;2654;47.958;13.614;2022-07-03T09:22:19;3.00;;;2.70;;
5263;SDS011;2654;47.958;13.614;2022-07-03T09:24:50;2.83;;;2.53;;
5263;SDS011;2654;47.958;13.614;2022-07-03T09:30:24;3.50;;;2.70;;
5263;SDS011;2654;47.958;13.614;2022-07-03T09:32:54;9.70;;;3.00;;
5263;SDS011;2654;47.958;13.614;2022-07-03T09:35:23;3.23;;;2.90;;
5263;SDS011;2654;47.958;13.614;2022-07-03T09:37:52;2.60;;;2.40;;
5263;SDS011;2654;47.958;13.614;2022-07-03T09:40:21;3.43;;;3.20;;
5263;SDS011;2654;47.958;13.614;2022-07-03T09:43:01;2.70;;;2.50;;
5263;SDS011;2654;47.958;13.614;2022-07-03T09:48:31;2.63;;;2.43;;
5263;SDS011;2654;47.958;13.614;2022-07-03T09:51:19;2.70;;;2.50;;
5263;SDS011;2654;47.958;13.614;2022-07-03T09:53:58;2.73;;;2.30;;
5263;SDS011;2654;47.958;13.614;2022-07-03T09:56:27;3.30;;;3.10;;
5263;SDS011;2654;47.958;13.614;2022-07-03T10:04:34;2.60;;;2.40;;
5263;SDS011;2654;47.958;13.614;2022-07-03T10:09:36;3.20;;;2.60;;
5263;SDS011;2654;47.958;13.614;2022-07-03T10:12:09;2.27;;;2.17;;
5263;SDS011;2654;47.958;13.614;2022-07-03T10:14:38;3.53;;;2.83;;
5263;SDS011;2654;47.958;13.614;2022-07-03T10:22:34;2.60;;;2.40;;
5263;SDS011;2654;47.958;13.614;2022-07-03T10:25:10;2.63;;;2.43;;
5263;SDS011;2654;47.958;13.614;2022-07-03T10:27:56;2.27;;;2.17;;
5263;SDS011;2654;47.958;13.614;2022-07-03T10:30:31;3.03;;;2.83;;
5263;SDS011;2654;47.958;13.614;2022-07-03T10:33:06;14.40;;;6.67;;
5263;SDS011;2654;47.958;13.614;2022-07-03T10:35:36;3.17;;;2.97;;
5263;SDS011;2654;47.958;13.614;2022-07-03T10:38:16;3.53;;;3.23;;
5263;SDS011;2654;47.958;13.614;2022-07-03T10:43:48;2.47;;;2.27;;
5263;SDS011;2654;47.958;13.614;2022-07-03T10:46:36;2.60;;;2.40;;
5263;SDS011;2654;47.958;13.614;2022-07-03T10:49:10;2.47;;;2.30;;
5263;SDS011;2654;47.958;13.614;2022-07-03T10:51:52;2.37;;;2.17;;
5263;SDS011;2654;47.958;13.614;2022-07-03T10:54:24;4.23;;;3.83;;
5263;SDS011;2654;47.958;13.614;2022-07-03T10:57:14;2.00;;;1.90;;
5263;SDS011;2654;47.958;13.614;2022-07-03T10:59:57;4.30;;;2.17;;
5263;SDS011;2654;47.958;13.614;2022-07-03T11:02:40;2.80;;;2.60;;
5263;SDS011;2654;47.958;13.614;2022-07-03T11:08:18;2.27;;;2.17;;
5263;SDS011;2654;47.958;13.614;2022-07-03T11:16:42;2.20;;;2.10;;
5263;SDS011;2654;47.958;13.614;2022-07-03T11:21:42;3.00;;;2.07;;
5263;SDS011;2654;47.958;13.614;2022-07-03T11:30:06;2.73;;;2.53;;
5263;SDS011;2654;47.958;13.614;2022-07-03T11:36:02;2.43;;;1.90;;
5263;SDS011;2654;47.958;13.614;2022-07-03T11:38:31;2.63;;;2.53;;
5263;SDS011;2654;47.958;13.614;2022-07-03T11:41:06;2.60;;;1.90;;
5263;SDS011;2654;47.958;13.614;2022-07-03T11:43:38;5.90;;;1.90;;
5263;SDS011;2654;47.958;13.614;2022-07-03T11:46:16;2.07;;;1.87;;
5263;SDS011;2654;47.958;13.614;2022-07-03T11:49:03;2.30;;;2.10;;
5263;SDS011;2654;47.958;13.614;2022-07-03T11:54:03;8.30;;;1.97;;
5263;SDS011;2654;47.958;13.614;2022-07-03T11:56:40;2.80;;;2.60;;
5263;SDS011;2654;47.958;13.614;2022-07-03T11:59:09;1.70;;;1.60;;
5263;SDS011;2654;47.958;13.614;2022-07-03T12:01:42;2.20;;;2.10;;
5263;SDS011;2654;47.958;13.614;2022-07-03T12:04:11;1.80;;;1.70;;
5263;SDS011;2654;47.958;13.614;2022-07-03T12:06:41;2.27;;;2.03;;
5263;SDS011;2654;47.958;13.614;2022-07-03T12:14:37;2.50;;;2.30;;
5263;SDS011;2654;47.958;13.614;2022-07-03T12:17:08;1.90;;;1.80;;
5263;SDS011;2654;47.958;13.614;2022-07-03T12:19:38;1.90;;;1.80;;
5263;SDS011;2654;47.958;13.614;2022-07-03T12:22:11;1.93;;;1.83;;
5263;SDS011;2654;47.958;13.614;2022-07-03T12:27:38;2.03;;;1.93;;
5263;SDS011;2654;47.958;13.614;2022-07-03T12:32:53;4.00;;;2.10;;
5263;SDS011;2654;47.958;13.614;2022-07-03T12:35:28;2.63;;;2.53;;
5263;SDS011;2654;47.958;13.614;2022-07-03T12:37:57;3.10;;;2.17;;
5263;SDS011;2654;47.958;13.614;2022-07-03T12:40:26;3.27;;;3.00;;
5263;SDS011;2654;47.958;13.614;2022-07-03T12:42:54;2.30;;;2.10;;
5263;SDS011;2654;47.958;13.614;2022-07-03T12:45:25;4.93;;;1.70;;
5263;SDS011;2654;47.958;13.614;2022-07-03T12:50:47;4.60;;;2.50;;
5263;SDS011;2654;47.958;13.614;2022-07-03T12:53:32;1.73;;;1.63;;
5263;SDS011;2654;47.958;13.614;2022-07-03T12:56:06;2.90;;;2.10;;
5263;SDS011;2654;47.958;13.614;2022-07-03T13:02:00;4.27;;;2.07;;
5263;SDS011;2654;47.958;13.614;2022-07-03T13:07:12;1.80;;;1.70;;
5263;SDS011;2654;47.958;13.614;2022-07-03T13:09:40;1.77;;;1.67;;
5263;SDS011;2654;47.958;13.614;2022-07-03T13:12:09;1.70;;;1.60;;
5263;SDS011;2654;47.958;13.614;2022-07-03T13:14:56;1.77;;;1.67;;
5263;SDS011;2654;47.958;13.614;2022-07-03T13:20:38;1.50;;;1.40;;
5263;SDS011;2654;47.958;13.614;2022-07-03T13:23:06;1.73;;;1.50;;
5263;SDS011;2654;47.958;13.614;2022-07-03T13:25:36;2.77;;;2.40;;
5263;SDS011;2654;47.958;13.614;2022-07-03T13:28:19;2.80;;;1.80;;
5263;SDS011;2654;47.958;13.614;2022-07-03T13:30:47;1.40;;;1.40;;
5263;SDS011;2654;47.958;13.614;2022-07-03T13:38:32;2.37;;;2.17;;
5263;SDS011;2654;47.958;13.614;2022-07-03T13:41:03;6.07;;;2.23;;
5263;SDS011;2654;47.958;13.614;2022-07-03T13:43:31;2.17;;;2.07;;
5263;SDS011;2654;47.958;13.614;2022-07-03T13:46:01;6.33;;;2.30;;
5263;SDS011;2654;47.958;13.614;2022-07-03T13:48:29;2.90;;;2.43;;
5263;SDS011;2654;47.958;13.614;2022-07-03T13:51:00;1.80;;;1.70;;
5263;SDS011;2654;47.958;13.614;2022-07-03T13:53:36;1.73;;;1.63;;
5263;SDS011;2654;47.958;13.614;2022-07-03T13:56:04;3.10;;;2.10;;
5263;SDS011;2654;47.958;13.614;2022-07-03T13:58:32;2.20;;;1.80;;
5263;SDS011;2654;47.958;13.614;2022-07-03T14:01:00;1.83;;;1.73;;
5263;SDS011;2654;47.958;13.614;2022-07-03T14:03:34;3.10;;;2.43;;
5263;SDS011;2654;47.958;13.614;2022-07-03T14:08:45;1.97;;;1.87;;
5263;SDS011;2654;47.958;13.614;2022-07-03T14:11:19;1.90;;;1.70;;
5263;SDS011;2654;47.958;13.614;2022-07-03T14:13:56;2.23;;;2.10;;
5263;SDS011;2654;47.958;13.614;2022-07-03T14:16:25;2.40;;;1.90;;
5263;SDS011;2654;47.958;13.614;2022-07-03T14:18:52;2.60;;;2.40;;
5263;SDS011;2654;47.958;13.614;2022-07-03T14:21:20;2.50;;;2.00;;
5263;SDS011;2654;47.958;13.614;2022-07-03T14:23:49;2.50;;;2.30;;
5263;SDS011;2654;47.958;13.614;2022-07-03T14:26:17;2.03;;;1.90;;
5263;SDS011;2654;47.958;13.614;2022-07-03T14:29:13;4.83;;;1.67;;
5263;SDS011;2654;47.958;13.614;2022-07-03T14:31:59;2.23;;;2.13;;
5263;SDS011;2654;47.958;13.614;2022-07-03T14:34:52;5.07;;;2.20;;
5263;SDS011;2654;47.958;13.614;2022-07-03T14:37:21;1.90;;;1.80;;
5263;SDS011;2654;47.958;13.614;2022-07-03T14:39:52;2.50;;;2.30;;
5263;SDS011;2654;47.958;13.614;2022-07-03T14:42:20;2.00;;;1.90;;
5263;SDS011;2654;47.958;13.614;2022-07-03T14:44:47;2.43;;;2.23;;
5263;SDS011;2654;47.958;13.614;2022-07-03T14:47:21;2.57;;;1.80;;
5263;SDS011;2654;47.958;13.614;2022-07-03T14:49:58;3.90;;;2.27;;
5263;SDS011;2654;47.958;13.614;2022-07-03T14:52:36;2.23;;;2.03;;
5263;SDS011;2654;47.958;13.614;2022-07-03T14:55:06;1.90;;;1.80;;
5263;SDS011;2654;47.958;13.614;2022-07-03T14:57:36;2.50;;;2.30;;
5263;SDS011;2654;47.958;13.614;2022-07-03T15:00:10;2.33;;;2.10;;
5263;SDS011;2654;47.958;13.614;2022-07-03T15:05:18;2.47;;;2.27;;
5263;SDS011;2654;47.958;13.614;2022-07-03T15:07:49;6.20;;;2.30;;
5263;SDS011;2654;47.958;13.614;2022-07-03T15:10:33;7.73;;;3.10;;
5263;SDS011;2654;47.958;13.614;2022-07-03T15:13:03;2.30;;;2.20;;
5263;SDS011;2654;47.958;13.614;2022-07-03T15:15:32;4.10;;;3.03;;
5263;SDS011;2654;47.958;13.614;2022-07-03T15:18:12;2.83;;;1.93;;
5263;SDS011;2654;47.958;13.614;2022-07-03T15:23:30;3.63;;;2.43;;
5263;SDS011;2654;47.958;13.614;2022-07-03T15:26:06;2.80;;;2.33;;
5263;SDS011;2654;47.958;13.614;2022-07-03T15:31:34;3.33;;;3.13;;
5263;SDS011;2654;47.958;13.614;2022-07-03T15:34:02;2.30;;;2.13;;
5263;SDS011;2654;47.958;13.614;2022-07-03T15:39:07;2.40;;;2.20;;
5263;SDS011;2654;47.958;13.614;2022-07-03T15:41:47;3.40;;;3.00;;
5263;SDS011;2654;47.958;13.614;2022-07-03T15:44:31;4.37;;;2.70;;
5263;SDS011;2654;47.958;13.614;2022-07-03T15:50:15;2.90;;;2.43;;
5263;SDS011;2654;47.958;13.614;2022-07-03T15:53:05;6.32;;;1.92;;
5263;SDS011;2654;47.958;13.614;2022-07-03T15:55:42;8.63;;;2.70;;
5263;SDS011;2654;47.958;13.614;2022-07-03T15:58:18;2.50;;;2.30;;
5263;SDS011;2654;47.958;13.614;2022-07-03T16:00:53;5.57;;;2.50;;
5263;SDS011;2654;47.958;13.614;2022-07-03T16:03:44;3.83;;;3.40;;
5263;SDS011;2654;47.958;13.614;2022-07-03T16:06:27;3.87;;;2.80;;
5263;SDS011;2654;47.958;13.614;2022-07-03T16:09:04;2.20;;;2.10;;
5263;SDS011;2654;47.958;13.614;2022-07-03T16:14:15;4.27;;;2.53;;
5263;SDS011;2654;47.958;13.614;2022-07-03T16:16:56;2.67;;;2.47;;
5263;SDS011;2654;47.958;13.614;2022-07-03T16:22:13;3.37;;;2.60;;
5263;SDS011;2654;47.958;13.614;2022-07-03T16:24:43;5.40;;;2.90;;
5263;SDS011;2654;47.958;13.614;2022-07-03T16:27:13;4.40;;;2.50;;
5263;SDS011;2654;47.958;13.614;2022-07-03T16:29:46;3.70;;;3.33;;
5263;SDS011;2654;47.958;13.614;2022-07-03T16:32:18;3.97;;;2.50;;
5263;SDS011;2654;47.958;13.614;2022-07-03T16:37:37;2.53;;;2.33;;
5263;SDS011;2654;47.958;13.614;2022-07-03T16:40:09;3.95;;;2.20;;
5263;SDS011;2654;47.958;13.614;2022-07-03T16:42:47;2.42;;;2.33;;
5263;SDS011;2654;47.958;13.614;2022-07-03T16:45:18;5.78;;;2.50;;
5263;SDS011;2654;47.958;13.614;2022-07-03T16:47:51;2.58;;;2.38;;
5263;SDS011;2654;47.958;13.614;2022-07-03T16:50:26;2.88;;;2.67;;
5263;SDS011;2654;47.958;13.614;2022-07-03T16:52:56;3.60;;;2.45;;
5263;SDS011;2654;47.958;13.614;2022-07-03T16:55:25;2.20;;;2.00;;
5263;SDS011;2654;47.958;13.614;2022-07-03T16:57:55;2.63;;;2.40;;
5263;SDS011;2654;47.958;13.614;2022-07-03T17:03:08;6.15;;;2.53;;
5263;SDS011;2654;47.958;13.614;2022-07-03T17:05:36;3.28;;;3.08;;
5263;SDS011;2654;47.958;13.614;2022-07-03T17:08:11;2.63;;;2.40;;
5263;SDS011;2654;47.958;13.614;2022-07-03T17:10:43;3.30;;;2.95;;
5263;SDS011;2654;47.958;13.614;2022-07-03T17:19:02;4.53;;;2.35;;
5263;SDS011;2654;47.958;13.614;2022-07-03T17:24:28;2.10;;;2.00;;
5263;SDS011;2654;47.958;13.614;2022-07-03T17:26:58;2.50;;;2.30;;
5263;SDS011;2654;47.958;13.614;2022-07-03T17:29:42;2.50;;;2.30;;
5263;SDS011;2654;47.958;13.614;2022-07-03T17:37:34;3.47;;;3.17;;
5263;SDS011;2654;47.958;13.614;2022-07-03T17:40:12;3.20;;;2.88;;
5263;SDS011;2654;47.958;13.614;2022-07-03T17:45:18;5.00;;;2.90;;
5263;SDS011;2654;47.958;13.614;2022-07-03T17:47:55;2.83;;;2.63;;
5263;SDS011;2654;47.958;13.614;2022-07-03T17:50:34;2.90;;;2.60;;
5263;SDS011;2654;47.958;13.614;2022-07-03T17:55:45;3.15;;;2.90;;
5263;SDS011;2654;47.958;13.614;2022-07-03T17:58:14;3.58;;;2.28;;
5263;SDS011;2654;47.958;13.614;2022-07-03T18:00:43;18.75;;;2.80;;
5263;SDS011;2654;47.958;13.614;2022-07-03T18:03:14;3.33;;;2.65;;
5263;SDS011;2654;47.958;13.614;2022-07-03T18:08:33;12.48;;;2.95;;
5263;SDS011;2654;47.958;13.614;2022-07-03T18:11:09;4.97;;;2.83;;
5263;SDS011;2654;47.958;13.614;2022-07-03T18:13:49;3.17;;;2.88;;
5263;SDS011;2654;47.958;13.614;2022-07-03T18:16:21;7.37;;;2.90;;
5263;SDS011;2654;47.958;13.614;2022-07-03T18:18:56;8.93;;;3.40;;
5263;SDS011;2654;47.958;13.614;2022-07-03T18:21:27;10.93;;;3.43;;
5263;SDS011;2654;47.958;13.614;2022-07-03T18:23:57;3.00;;;2.70;;
5263;SDS011;2654;47.958;13.614;2022-07-03T18:29:03;5.03;;;3.50;;
5263;SDS011;2654;47.958;13.614;2022-07-03T18:31:33;20.90;;;4.17;;
5263;SDS011;2654;47.958;13.614;2022-07-03T18:34:06;5.50;;;3.27;;
5263;SDS011;2654;47.958;13.614;2022-07-03T18:36:47;6.70;;;3.50;;
5263;SDS011;2654;47.958;13.614;2022-07-03T18:47:04;7.50;;;3.40;;
5263;SDS011;2654;47.958;13.614;2022-07-03T18:49:36;3.40;;;2.80;;
5263;SDS011;2654;47.958;13.614;2022-07-03T18:52:19;4.20;;;3.27;;
5263;SDS011;2654;47.958;13.614;2022-07-03T18:55:07;10.60;;;3.13;;
5263;SDS011;2654;47.958;13.614;2022-07-03T18:57:49;4.33;;;3.93;;
5263;SDS011;2654;47.958;13.614;2022-07-03T19:00:22;11.17;;;3.27;;
5263;SDS011;2654;47.958;13.614;2022-07-03T19:03:10;13.33;;;3.80;;
5263;SDS011;2654;47.958;13.614;2022-07-03T19:05:43;3.83;;;3.47;;
5263;SDS011;2654;47.958;13.614;2022-07-03T19:16:19;6.30;;;3.60;;
5263;SDS011;2654;47.958;13.614;2022-07-03T19:18:52;5.80;;;3.43;;
5263;SDS011;2654;47.958;13.614;2022-07-03T19:21:24;4.83;;;3.53;;
5263;SDS011;2654;47.958;13.614;2022-07-03T19:23:53;5.40;;;3.87;;
5263;SDS011;2654;47.958;13.614;2022-07-03T19:26:21;9.83;;;3.70;;
5263;SDS011;2654;47.958;13.614;2022-07-03T19:28:51;4.63;;;4.17;;
5263;SDS011;2654;47.958;13.614;2022-07-03T19:31:21;5.20;;;4.10;;
5263;SDS011;2654;47.958;13.614;2022-07-03T19:33:49;4.80;;;3.93;;
5263;SDS011;2654;47.958;13.614;2022-07-03T19:36:17;6.80;;;3.87;;
5263;SDS011;2654;47.958;13.614;2022-07-03T19:38:46;4.67;;;4.20;;
5263;SDS011;2654;47.958;13.614;2022-07-03T19:41:14;6.13;;;3.60;;
5263;SDS011;2654;47.958;13.614;2022-07-03T19:43:43;5.10;;;4.70;;
5263;SDS011;2654;47.958;13.614;2022-07-03T19:49:05;3.97;;;3.67;;
5263;SDS011;2654;47.958;13.614;2022-07-03T19:51:34;4.30;;;3.50;;
5263;SDS011;2654;47.958;13.614;2022-07-03T19:54:03;15.40;;;3.87;;
5263;SDS011;2654;47.958;13.614;2022-07-03T19:56:38;3.83;;;3.53;;
5263;SDS011;2654;47.958;13.614;2022-07-03T19:59:06;6.70;;;4.07;;
5263;SDS011;2654;47.958;13.614;2022-07-03T20:01:33;5.27;;;3.73;;
5263;SDS011;2654;47.958;13.614;2022-07-03T20:04:02;6.30;;;4.00;;